Airfield :
LOGIN :

Register | Disclaimer

   EN    FR    IT 

 










Legend :    VFR   Marginal VFR   IFR   Intensive IFR   Very Intensive IFR
Visi :
Ceiling :
>= 8 km
>= 3000ft
5 to 8 km
1000 to 3000 ft
1500m to 5 km
500 to 1000 ft
800 to 1500m
200 to 500 ft
< 800m
< 200 ft
Symbols :   Thunderstorms  Fog  Heavy snow  Heavy precipitations  Wind > 20 kt
SIGMETs :     Misc.  Thunderstorms  Icing  Turbulence  Mountain Waves  Volcanic Ashes







- Airport Elevation : 436 ft
- IATA code : BTS


LZIB - Bratislava

CURRENT METAR :
  • 230900Z 06008KT 0300 R31/0800N R22/0550N FG VV002 04/04 Q1017 BECMG 0500 FG OVC002

EXPIRED METARs :
  • 230830Z 05009KT 0200 R31/0375N R22/0400N FG VV002 04/03 Q1016 NOSIG
  • 230800Z 05009KT 0200 R31/0300N R22/0350N FG VV001 03/03 Q1017 NOSIG
  • 230730Z 05008KT 0200 R31/0300N R22/0350N FG VV001 03/02 Q1017 NOSIG
  • 230700Z 05008KT 0200 R31/0325N R22/0400N FG VV001 02/02 Q1016 NOSIG
  • 230630Z 07007KT 0300 R31/0500N R22/0700D FG VV001 02/02 Q1016 NOSIG

TAF AMD TAF LZIB
Valid from the 23 at 06:00 until the 24 at 06:00 UTC


230625Z 2306/2406 05009KT 0500 FG OVC004
TEMPO 2306/2308 0250 FG SCT001 OVC002
BECMG 2309/2311 08010KT 6000 BKN020
TEMPO 2312/2315 9999 SCT030
BECMG 2320/2322 08002KT 1300 BR SCT003
No reported NOTAMs for that airfield.



MET'MAP, your aeronautical weather chart ! - Copyright ORBIFLY December 2007 - Disclaimer

ORBIFLY MET'MAP TEAM :

Programming & Development : Alexandra Zaïnal
Concept & Development : Baudouin d'Aumeries
Co-Development & Prog : Marc-Olivier Méhu
Technical & hardware support : Manuel Goepfert

Contact : metmap@orbifly.com




SOURCES & CREDITS :

   NOAA